• Join FlightAware (Why Join?)
  • Login
  • US Flag 
11:06PM EDT


 

Airport Tracker/Info


-or-


 

Live Flight TrackerFlight Track Log ✈ AWE1535 ✈ 21-May-2012 ✈ KPHX - KLAX

Flight Track Log - Related Links

Times and Time Zones

All times are in EDT time to prevent confusion due to time zone crossing. See the AWE1535 flight status page for this flight to view local times or setup timezone preferences in your user account.

Time Position Orientation Groundspeed Altitude Reporting Facility
EDT Latitude Longitude Course Direction KTS MPH feet Rate Location/Type
11:37PM 33.4333 -112.0333 266° West 187 215 2,000  Level Phoenix TRACON
11:42PM 33.4119 -112.4164 277° West 282 325 10,300 1,560 Climbing Albuquerque Center
11:43PM 33.4258 -112.5461 276° West 334 384 11,400 1,200 Climbing Albuquerque Center
11:44PM 33.4367 -112.6653 278° West 366 421 12,800 1,620 Climbing Albuquerque Center
11:45PM 33.4506 -112.7900 290° West 376 433 14,700 1,800 Climbing Albuquerque Center
11:46PM 33.4856 -112.9083 292° West 385 443 16,500 1,680 Climbing Albuquerque Center
11:47PM 33.5275 -113.0319 293° West 398 458 18,200 1,560 Climbing Albuquerque Center
11:48PM 33.5706 -113.1528 293° West 397 457 19,700 1,380 Climbing Albuquerque Center
11:49PM 33.6153 -113.2769 293° West 403 464 21,100 1,560 Climbing Albuquerque Center
11:50PM 33.6675 -113.4261 293° West 414 476 22,900 1,440 Climbing Albuquerque Center
11:51PM 33.7144 -113.5572 293° West 418 481 24,100 1,080 Climbing Albuquerque Center
11:52PM 33.7622 -113.6936 293° West 427 491 25,200 1,140 Climbing Albuquerque Center
11:53PM 33.8097 -113.8314 293° West 436 502 26,500 1,320 Climbing Albuquerque Center
11:54PM 33.8578 -113.9683 293° West 438 504 27,900 720 Climbing Albuquerque Center
11:55PM 33.9050 -114.1031 281° West 433 498 28,000  Climbing Albuquerque Center
11:56PM 33.9258 -114.2386 279° West 440 506 28,000  Level Albuquerque Center
11:57PM 33.9450 -114.3800 278° West 435 501 28,000  Level Albuquerque Center
11:58PM 33.9625 -114.5233 278° West 434 499 28,000  Level Albuquerque Center
11:59PM 33.9797 -114.6669 278° West 434 499 28,000  Level Albuquerque Center
12:00AM 34.0008 -114.8411 279° West 437 503 28,000 -60 Level Albuquerque Center
12:01AM 34.0197 -114.9883 279° West 441 507 27,900  Descending Los Angeles Center
12:02AM 34.0378 -115.1311 278° West 446 513 28,000  Climbing Los Angeles Center
12:03AM 34.0556 -115.2764 278° West 446 513 28,000  Level Los Angeles Center
12:04AM 34.0731 -115.4217 278° West 446 513 28,000  Level Los Angeles Center
12:05AM 34.0906 -115.5669 278° West 446 513 28,000  Level Los Angeles Center
12:06AM 34.1078 -115.7147 267° West 446 513 28,000  Level Los Angeles Center
12:07AM 34.1019 -115.8628 259° West 446 513 28,000  Level Los Angeles Center
12:08AM 34.0792 -116.0083 259° West 440 506 28,000  Level Los Angeles Center
12:09AM 34.0564 -116.1539 260° West 445 512 28,000  Level Los Angeles Center
12:10AM 34.0353 -116.2992 259° West 445 512 28,000 -300 Level Los Angeles Center
12:11AM 34.0122 -116.4369 265° West 445 512 27,500 -1,320 Descending Los Angeles Center
12:12AM 34.0011 -116.5847 263° West 425 489 25,400 -2,160 Descending Los Angeles Center
12:13AM 33.9881 -116.7125 264° West 405 466 23,200 -2,040 Descending Los Angeles Center
12:14AM 33.9792 -116.8225 264° West 392 451 21,400 -2,040 Descending Los Angeles Center
12:15AM 33.9667 -116.9667 270° West 362 417 19,000 -2,040 Descending Southern California TRACON
12:16AM 33.9667 -117.0833 260° West 366 421 17,200 -1,560 Descending Southern California TRACON
12:17AM 33.9500 -117.2000 261° West 355 409 15,900 -1,380 Descending Southern California TRACON
12:18AM 33.9333 -117.3333 289° West 347 399 14,400 -1,380 Descending Southern California TRACON
12:19AM 33.9667 -117.4500 292° West 346 398 13,100 -1,320 Descending Southern California TRACON
12:20AM 34.0000 -117.5500 296° West 339 390 11,900 -1,200 Descending Southern California TRACON
12:21AM 34.0333 -117.6333 259° West 306 352 10,800 -1,200 Descending Southern California TRACON
12:22AM 34.0167 -117.7333 270° West 287 330 9,600 -1,320 Descending Southern California TRACON
12:23AM 34.0167 -117.8333 256° West 284 327 8,200 -1,200 Descending Southern California TRACON
12:24AM 34.0000 -117.9167 270° West 263 303 7,200 -1,140 Descending Southern California TRACON
12:25AM 34.0000 -118.0000 256° West 242 278 6,000 -1,080 Descending Southern California TRACON
12:27AM 33.9833 -118.0833 270° West 219 252 5,000 -900 Descending Southern California TRACON
12:27AM 33.9833 -118.1500 248° West 187 215 4,200 -840 Descending Southern California TRACON
12:28AM 33.9667 -118.2000 270° West 161 185 3,400 -840 Descending Southern California TRACON
12:29AM 33.9667 -118.2500 270° West 153 176 2,600 -840 Descending Southern California TRACON
12:30AM 33.9667 -118.3000 248° West 152 175 1,800 -840 Descending Southern California TRACON
12:31AM 33.9500 -118.3500 277° West 145 167 1,000 14,400 Descending Southern California TRACON
12:32AM 33.9539 -118.3900 260° West 157 181 28,000 -540 Climbing Los Angeles Center
12:33AM 33.9467 -118.4400 263° West 157 181 100  Descending Los Angeles Center
12:34AM 33.9414 -118.4900 263° West 157 181 28,000 27,900 Climbing Los Angeles Center